Time;durP1;ratioP1;P1;durP2;ratioP2;P2;SDS_P1;SDS_P2;PMS_P1;PMS_P2;Temp;Humidity;BMP_temperature;BMP_pressure;BME280_temperature;BME280_humidity;BME280_pressure;Samples;Min_cycle;Max_cycle;Signal;HPM_P1;HPM_P2
2021/12/09 00:02:14;;;;;;;16.85;7.40;;;1.90;99.90;;;;;;5015917;28;20042;-77
2021/12/09 00:04:41;;;;;;;15.57;7.75;;;1.80;99.90;;;;;;5015913;28;20105;-77
2021/12/09 00:07:07;;;;;;;14.40;6.53;;;1.70;99.90;;;;;;5014687;28;20486;-77
2021/12/09 00:09:33;;;;;;;15.60;7.18;;;1.70;99.90;;;;;;5014088;28;20045;-77
2021/12/09 00:11:59;;;;;;;15.82;7.57;;;1.70;99.90;;;;;;5003157;28;20191;-77
2021/12/09 00:14:31;;;;;;;21.80;7.68;;;1.70;99.90;;;;;;4995016;28;20050;-77
2021/12/09 00:17:01;;;;;;;18.73;7.47;;;2.10;99.90;;;;;;4996203;28;20054;-77
2021/12/09 00:19:27;;;;;;;16.05;7.13;;;1.60;99.90;;;;;;4979546;28;20490;-77
2021/12/09 00:21:53;;;;;;;14.50;7.15;;;1.60;99.90;;;;;;4994946;28;20099;-77
2021/12/09 00:24:19;;;;;;;22.92;8.57;;;1.80;99.90;;;;;;5001496;28;20049;-77
2021/12/09 00:26:45;;;;;;;15.43;8.07;;;1.70;99.90;;;;;;4998821;28;20046;-77
2021/12/09 00:29:14;;;;;;;13.82;6.85;;;1.80;99.90;;;;;;5014597;28;20042;-77
2021/12/09 00:31:40;;;;;;;16.77;7.55;;;1.80;99.90;;;;;;5015106;28;20081;-77
2021/12/09 00:34:05;;;;;;;16.63;7.50;;;1.80;99.90;;;;;;5014967;28;20045;-77
2021/12/09 00:36:41;;;;;;;13.70;7.50;;;1.90;99.90;;;;;;5015627;28;20141;-77
2021/12/09 00:39:09;;;;;;;15.30;7.88;;;1.60;99.90;;;;;;5011504;28;20501;-77
2021/12/09 00:41:36;;;;;;;17.00;7.57;;;1.70;99.90;;;;;;4994812;28;20058;-77
2021/12/09 00:44:02;;;;;;;17.33;7.55;;;1.60;99.90;;;;;;4995286;28;20505;-77
2021/12/09 00:46:28;;;;;;;12.00;7.03;;;1.60;99.90;;;;;;4995238;28;20148;-77
2021/12/09 00:48:54;;;;;;;16.17;7.97;;;1.50;99.90;;;;;;4996028;28;20460;-77
2021/12/09 00:51:20;;;;;;;14.75;8.50;;;1.50;99.90;;;;;;4996538;28;20042;-77
2021/12/09 00:53:46;;;;;;;24.55;8.20;;;1.50;99.90;;;;;;4997589;28;20042;-77
2021/12/09 00:56:13;;;;;;;19.52;7.97;;;1.50;99.90;;;;;;5013682;28;20056;-77
2021/12/09 00:58:40;;;;;;;17.58;8.20;;;1.50;99.90;;;;;;5014743;28;20131;-77
2021/12/09 01:01:07;;;;;;;26.92;9.00;;;1.50;99.90;;;;;;5014774;28;20072;-77
2021/12/09 01:03:35;;;;;;;20.77;7.95;;;1.50;99.90;;;;;;5000528;28;20038;-77
2021/12/09 01:06:02;;;;;;;15.32;7.95;;;1.50;99.90;;;;;;5005284;28;20104;-78
2021/12/09 01:08:28;;;;;;;21.23;8.15;;;1.60;99.90;;;;;;5014567;28;20060;-77
2021/12/09 01:10:54;;;;;;;15.88;8.40;;;1.40;99.90;;;;;;4997812;28;20045;-77
2021/12/09 01:13:20;;;;;;;15.48;8.90;;;1.50;99.90;;;;;;4998405;28;20052;-78
2021/12/09 01:15:46;;;;;;;17.02;8.10;;;1.50;99.90;;;;;;5014254;28;20452;-78
2021/12/09 01:18:12;;;;;;;21.98;8.45;;;1.40;99.90;;;;;;5013820;28;20046;-77
2021/12/09 01:20:37;;;;;;;24.60;9.20;;;1.40;99.90;;;;;;5012571;28;20049;-78
2021/12/09 01:23:04;;;;;;;16.73;8.23;;;1.40;99.90;;;;;;5015329;28;20080;-78
2021/12/09 01:25:36;;;;;;;19.80;9.52;;;1.70;99.90;;;;;;4997463;28;20092;-78
2021/12/09 01:28:08;;;;;;;22.30;9.55;;;1.60;99.90;;;;;;4981444;28;20081;-77
2021/12/09 01:30:34;;;;;;;21.85;9.73;;;1.40;99.90;;;;;;5014097;28;20052;-78
2021/12/09 01:33:01;;;;;;;18.63;9.48;;;1.30;99.90;;;;;;4996934;28;20100;-78
2021/12/09 01:35:30;;;;;;;22.13;9.60;;;1.30;99.90;;;;;;4997736;28;20524;-77
2021/12/09 01:37:59;;;;;;;20.85;10.23;;;1.60;99.90;;;;;;5013220;28;20497;-77
2021/12/09 01:40:27;;;;;;;19.60;9.98;;;1.30;99.90;;;;;;4982296;28;20521;-77
2021/12/09 01:42:54;;;;;;;25.25;10.02;;;1.30;99.90;;;;;;4994186;28;20053;-77
2021/12/09 01:45:20;;;;;;;25.90;11.50;;;1.90;99.90;;;;;;4977269;28;20405;-78
2021/12/09 01:47:47;;;;;;;23.48;10.52;;;1.30;99.90;;;;;;4999972;28;20041;-77
2021/12/09 01:50:14;;;;;;;24.98;10.57;;;1.40;99.90;;;;;;5014832;28;20386;-78
2021/12/09 01:52:40;;;;;;;21.27;10.85;;;1.60;99.90;;;;;;5012878;28;20053;-78
2021/12/09 01:55:07;;;;;;;27.85;12.07;;;1.40;99.90;;;;;;5000834;28;20490;-77
2021/12/09 01:57:33;;;;;;;24.45;12.38;;;1.30;99.90;;;;;;4977729;28;20057;-78
2021/12/09 01:59:59;;;;;;;19.65;10.75;;;1.30;99.90;;;;;;4993081;28;20054;-78
2021/12/09 02:02:25;;;;;;;23.15;11.18;;;1.30;99.90;;;;;;4994243;28;20065;-77
2021/12/09 02:04:51;;;;;;;19.27;9.70;;;1.30;99.90;;;;;;4994632;28;20378;-78
2021/12/09 02:07:16;;;;;;;31.58;12.30;;;1.30;99.90;;;;;;5013486;28;20190;-78
2021/12/09 02:09:42;;;;;;;20.83;11.20;;;1.30;99.90;;;;;;5003778;28;20046;-78
2021/12/09 02:12:10;;;;;;;21.35;11.20;;;2.20;99.90;;;;;;4977767;28;20043;-78
2021/12/09 02:14:40;;;;;;;23.20;10.85;;;1.30;99.90;;;;;;4992979;28;20054;-78
2021/12/09 02:17:07;;;;;;;21.20;10.75;;;1.60;99.90;;;;;;4993734;28;20057;-78
2021/12/09 02:19:33;;;;;;;14.50;10.15;;;1.30;99.90;;;;;;4993569;28;20054;-78
2021/12/09 02:21:59;;;;;;;20.95;11.02;;;1.30;99.90;;;;;;4976447;28;20046;-78
2021/12/09 02:24:25;;;;;;;23.27;11.55;;;1.30;99.90;;;;;;5001452;28;20042;-78
2021/12/09 02:26:51;;;;;;;23.25;10.82;;;1.40;99.90;;;;;;5002681;28;20408;-78
2021/12/09 02:29:18;;;;;;;23.85;10.93;;;1.30;99.90;;;;;;4992627;28;20098;-78
2021/12/09 02:31:45;;;;;;;27.48;11.05;;;1.30;99.90;;;;;;4977196;28;20042;-78
2021/12/09 02:34:12;;;;;;;27.33;11.93;;;1.30;99.90;;;;;;4992842;28;20046;-78
2021/12/09 02:36:40;;;;;;;21.90;12.40;;;1.30;99.90;;;;;;4993353;28;20050;-78
2021/12/09 02:39:08;;;;;;;27.10;11.82;;;1.20;99.90;;;;;;4994556;28;20034;-78
2021/12/09 02:41:36;;;;;;;20.92;11.30;;;1.20;99.90;;;;;;4993762;28;20050;-78
2021/12/09 02:44:05;;;;;;;25.80;11.68;;;1.20;99.90;;;;;;4994317;28;20444;-79
2021/12/09 02:46:36;;;;;;;30.40;12.73;;;1.20;99.90;;;;;;4993518;28;20136;-78
2021/12/09 02:49:11;;;;;;;23.90;11.10;;;1.30;99.90;;;;;;4992453;28;20111;-78
2021/12/09 02:51:37;;;;;;;26.05;13.98;;;1.20;99.90;;;;;;4976845;28;20061;-78
2021/12/09 02:54:05;;;;;;;24.10;12.15;;;1.70;99.90;;;;;;4978029;28;20050;-77
2021/12/09 02:56:31;;;;;;;27.42;12.10;;;1.20;99.90;;;;;;4993329;28;20050;-78
2021/12/09 02:58:57;;;;;;;20.10;11.18;;;2.20;99.90;;;;;;4976860;28;20058;-78
2021/12/09 03:01:31;;;;;;;25.30;11.13;;;1.20;99.90;;;;;;4992948;28;20046;-78
2021/12/09 03:04:00;;;;;;;28.52;13.57;;;1.20;99.90;;;;;;4994426;28;20082;-78
2021/12/09 03:06:36;;;;;;;27.60;11.95;;;1.30;99.90;;;;;;5006758;28;20046;-78
2021/12/09 03:09:11;;;;;;;26.48;11.98;;;1.10;99.90;;;;;;5008814;28;20051;-78
2021/12/09 03:11:37;;;;;;;25.80;10.63;;;1.10;99.90;;;;;;4992192;28;20556;-78
2021/12/09 03:14:04;;;;;;;23.38;11.18;;;1.10;99.90;;;;;;4976550;28;20494;-78
2021/12/09 03:16:30;;;;;;;28.27;11.20;;;1.10;99.90;;;;;;4992150;28;20050;-78
2021/12/09 03:19:02;;;;;;;24.70;11.63;;;1.10;99.90;;;;;;4976929;28;20058;-78
2021/12/09 03:21:35;;;;;;;22.20;11.18;;;1.10;99.90;;;;;;4996900;28;20042;-78
2021/12/09 03:24:03;;;;;;;22.67;11.90;;;1.80;99.90;;;;;;4999224;28;20049;-78
2021/12/09 03:26:33;;;;;;;23.92;11.52;;;1.00;99.90;;;;;;5017109;28;20501;-78
2021/12/09 03:29:03;;;;;;;26.25;11.27;;;1.00;99.90;;;;;;5017393;28;20489;-78
2021/12/09 03:31:30;;;;;;;24.10;13.90;;;1.20;99.90;;;;;;5015649;28;20485;-78
2021/12/09 03:33:57;;;;;;;21.55;12.20;;;1.00;99.90;;;;;;4999846;28;20049;-78
2021/12/09 03:36:27;;;;;;;22.50;11.93;;;1.00;99.90;;;;;;5016302;28;20060;-78
2021/12/09 03:38:56;;;;;;;20.02;11.43;;;1.00;99.90;;;;;;5012618;28;20501;-78
2021/12/09 03:41:22;;;;;;;26.63;12.02;;;0.90;99.90;;;;;;4997603;28;20050;-78
2021/12/09 03:43:48;;;;;;;24.80;12.15;;;1.30;99.90;;;;;;4997862;28;20532;-78
2021/12/09 03:46:14;;;;;;;26.27;12.25;;;1.10;99.90;;;;;;4995550;28;20141;-78
2021/12/09 03:48:40;;;;;;;28.13;13.00;;;0.90;99.90;;;;;;4996459;28;20382;-78
2021/12/09 03:51:05;;;;;;;26.23;11.80;;;1.50;99.90;;;;;;4996205;28;20046;-78
2021/12/09 03:53:31;;;;;;;24.42;12.93;;;1.20;99.90;;;;;;4995570;28;20122;-78
2021/12/09 03:55:57;;;;;;;27.08;12.52;;;1.00;99.90;;;;;;5012397;28;20038;-78
2021/12/09 03:58:23;;;;;;;24.30;12.38;;;0.90;99.90;;;;;;5017215;28;20504;-78
2021/12/09 04:00:50;;;;;;;21.30;12.18;;;0.90;99.90;;;;;;5016377;28;20099;-78
2021/12/09 04:03:17;;;;;;;36.65;14.68;;;0.90;99.90;;;;;;5015596;28;20057;-78
2021/12/09 04:05:44;;;;;;;41.10;14.80;;;1.50;99.90;;;;;;5014727;28;20501;-78
2021/12/09 04:08:10;;;;;;;30.58;14.15;;;1.00;99.90;;;;;;5015719;28;20045;-78
2021/12/09 04:10:36;;;;;;;26.65;13.05;;;0.90;99.90;;;;;;4999136;28;20100;-78
2021/12/09 04:13:03;;;;;;;22.20;12.63;;;0.90;99.90;;;;;;4995393;28;20129;-78
2021/12/09 04:15:29;;;;;;;29.15;12.55;;;0.90;99.90;;;;;;4995905;28;20113;-78
2021/12/09 04:17:55;;;;;;;24.35;13.05;;;1.80;99.90;;;;;;4979510;28;20525;-78
2021/12/09 04:20:21;;;;;;;29.92;13.35;;;0.80;99.90;;;;;;4996215;28;20046;-78
2021/12/09 04:22:49;;;;;;;25.48;13.27;;;1.10;99.90;;;;;;4997055;28;20041;-78
2021/12/09 04:25:25;;;;;;;36.33;14.90;;;1.00;99.90;;;;;;4979695;28;20054;-78
2021/12/09 04:27:53;;;;;;;27.80;13.27;;;0.90;99.90;;;;;;4994890;28;20073;-78
2021/12/09 04:30:19;;;;;;;26.02;12.77;;;1.60;99.90;;;;;;4995767;28;20042;-78
2021/12/09 04:32:46;;;;;;;31.50;12.82;;;0.90;99.90;;;;;;5001362;28;20077;-78
2021/12/09 04:35:12;;;;;;;27.00;12.52;;;1.00;99.90;;;;;;5015021;28;20042;-78
2021/12/09 04:37:38;;;;;;;28.17;12.18;;;0.80;99.90;;;;;;5014985;28;20042;-78
2021/12/09 04:40:09;;;;;;;30.63;13.27;;;1.30;99.90;;;;;;5002748;28;20084;-78
2021/12/09 04:42:35;;;;;;;24.33;12.82;;;0.80;99.90;;;;;;4994839;28;20054;-78
2021/12/09 04:45:00;;;;;;;32.63;12.25;;;1.00;99.90;;;;;;4978802;28;20498;-78
2021/12/09 04:47:26;;;;;;;24.40;12.25;;;1.00;99.90;;;;;;4995659;28;20046;-78
2021/12/09 04:49:52;;;;;;;24.75;12.40;;;1.20;99.90;;;;;;4994594;28;20491;-78
2021/12/09 04:52:18;;;;;;;34.60;13.52;;;1.50;99.90;;;;;;4995084;28;20042;-78
2021/12/09 04:54:44;;;;;;;33.75;11.90;;;0.80;99.90;;;;;;5003957;28;20050;-78
2021/12/09 04:57:12;;;;;;;24.27;12.98;;;1.70;99.90;;;;;;5014133;28;20120;-78
2021/12/09 04:59:38;;;;;;;25.63;11.77;;;0.90;99.90;;;;;;4998794;28;20073;-78
2021/12/09 05:02:10;;;;;;;32.47;13.30;;;1.70;99.90;;;;;;5013452;28;20042;-78
2021/12/09 05:04:36;;;;;;;33.42;12.63;;;0.80;99.90;;;;;;5014724;28;20465;-78
2021/12/09 05:07:02;;;;;;;31.13;11.63;;;1.20;99.90;;;;;;5014314;28;20042;-78
2021/12/09 05:09:29;;;;;;;24.73;12.13;;;0.70;99.90;;;;;;5006795;28;20054;-78
2021/12/09 05:11:55;;;;;;;24.77;12.93;;;0.80;99.90;;;;;;4996119;28;20509;-78
2021/12/09 05:14:23;;;;;;;30.00;12.88;;;0.70;99.90;;;;;;4996079;28;20042;-78
2021/12/09 05:16:52;;;;;;;28.63;11.93;;;1.70;99.90;;;;;;4993886;28;20490;-78
2021/12/09 05:19:20;;;;;;;24.63;12.80;;;0.70;99.90;;;;;;4994912;28;20493;-78
2021/12/09 05:21:45;;;;;;;20.08;12.40;;;0.70;99.90;;;;;;4994868;28;20042;-78
2021/12/09 05:24:13;;;;;;;28.80;11.63;;;0.70;99.90;;;;;;4998640;28;20520;-78
2021/12/09 05:26:47;;;;;;;23.83;11.80;;;0.90;99.90;;;;;;5014297;28;20050;-79
2021/12/09 05:29:14;;;;;;;29.58;10.27;;;1.40;99.90;;;;;;5014078;28;20057;-78
2021/12/09 05:34:25;;;;;;;35.00;12.73;;;0.60;99.90;;;;;;5009866;28;20056;-79
2021/12/09 05:36:51;;;;;;;25.50;11.80;;;0.60;99.90;;;;;;4994533;28;20125;-79
2021/12/09 05:39:17;;;;;;;28.23;12.00;;;1.30;99.90;;;;;;5000129;28;20045;-78
2021/12/09 05:41:45;;;;;;;22.88;12.02;;;0.60;99.90;;;;;;5014121;28;20050;-78
2021/12/09 05:44:12;;;;;;;21.92;12.25;;;0.60;99.90;;;;;;5011935;28;20478;-79
2021/12/09 05:46:44;;;;;;;29.98;12.23;;;0.80;99.90;;;;;;5014542;28;20378;-78
2021/12/09 05:49:10;;;;;;;29.05;12.85;;;1.60;99.90;;;;;;4997745;28;20096;-78
2021/12/09 05:51:38;;;;;;;29.15;14.35;;;0.60;99.90;;;;;;5014299;28;20125;-78
2021/12/09 05:54:03;;;;;;;35.13;12.23;;;0.60;99.90;;;;;;5010945;28;20042;-79
2021/12/09 05:56:29;;;;;;;35.47;13.18;;;0.80;99.90;;;;;;4994053;28;20478;-79
2021/12/09 05:58:55;;;;;;;24.67;11.02;;;0.80;99.90;;;;;;4994381;28;20053;-79
2021/12/09 06:01:22;;;;;;;29.30;12.15;;;0.60;99.90;;;;;;4993887;28;20049;-78
2021/12/09 06:03:48;;;;;;;28.63;12.30;;;0.60;99.90;;;;;;4993892;28;20100;-79
2021/12/09 06:06:14;;;;;;;27.05;12.45;;;0.60;99.90;;;;;;5004952;28;20086;-80
2021/12/09 06:08:40;;;;;;;30.90;12.43;;;0.60;99.90;;;;;;5014032;28;20056;-79
2021/12/09 06:11:08;;;;;;;32.67;12.15;;;0.60;99.90;;;;;;4977512;28;20101;-79
2021/12/09 06:13:36;;;;;;;32.45;13.35;;;1.20;99.90;;;;;;4993072;28;20050;-79
2021/12/09 06:16:03;;;;;;;31.20;11.43;;;0.70;99.90;;;;;;4977318;28;20057;-80
2021/12/09 06:18:29;;;;;;;32.83;12.43;;;0.60;99.90;;;;;;4977430;28;20176;-80
2021/12/09 06:20:55;;;;;;;30.25;12.35;;;1.10;99.90;;;;;;4992880;28;20133;-78
2021/12/09 06:23:21;;;;;;;24.92;11.50;;;0.60;99.90;;;;;;4993886;28;20050;-79
2021/12/09 06:25:46;;;;;;;28.83;11.18;;;0.80;99.90;;;;;;5008915;28;20050;-78
2021/12/09 06:28:12;;;;;;;25.98;11.15;;;0.60;99.90;;;;;;4992527;28;20078;-79
2021/12/09 06:30:38;;;;;;;28.60;12.35;;;0.60;99.90;;;;;;4993605;28;20038;-78
2021/12/09 06:33:05;;;;;;;29.75;11.65;;;0.60;99.90;;;;;;4993589;28;20046;-79
2021/12/09 06:35:33;;;;;;;27.27;11.25;;;0.60;99.90;;;;;;4992490;28;20129;-79
2021/12/09 06:38:00;;;;;;;25.10;11.90;;;0.60;99.90;;;;;;4993540;28;20093;-79
2021/12/09 06:40:26;;;;;;;36.20;13.25;;;0.60;99.90;;;;;;5006911;28;20104;-80
2021/12/09 06:42:53;;;;;;;33.72;12.35;;;0.70;99.90;;;;;;4993798;28;20050;-79
2021/12/09 06:45:21;;;;;;;32.72;13.38;;;1.60;99.90;;;;;;4993166;28;20137;-79
2021/12/09 06:47:49;;;;;;;29.85;13.05;;;0.70;99.90;;;;;;4992496;28;20057;-79
2021/12/09 06:50:17;;;;;;;28.27;14.52;;;0.70;99.90;;;;;;4993242;28;20490;-79
2021/12/09 06:52:43;;;;;;;38.90;13.27;;;0.70;99.90;;;;;;4992967;28;20046;-81
2021/12/09 06:55:12;;;;;;;39.25;13.13;;;0.70;99.90;;;;;;5003922;28;20042;-81
2021/12/09 06:57:38;;;;;;;37.35;12.60;;;0.70;99.90;;;;;;5012807;28;20137;-80
2021/12/09 07:00:11;;;;;;;26.27;11.65;;;0.80;99.90;;;;;;5013075;28;20053;-80
2021/12/09 07:02:37;;;;;;;34.17;12.55;;;0.80;99.90;;;;;;5013516;28;20042;-80
2021/12/09 07:05:05;;;;;;;28.23;11.27;;;0.80;99.90;;;;;;5013732;28;20073;-80
2021/12/09 07:07:31;;;;;;;30.10;11.75;;;0.70;99.90;;;;;;4999918;28;20108;-81
2021/12/09 07:09:56;;;;;;;29.75;11.82;;;0.90;99.90;;;;;;5002373;28;20062;-80
2021/12/09 07:12:22;;;;;;;30.35;12.23;;;1.00;99.90;;;;;;5012620;28;20056;-81
2021/12/09 07:14:48;;;;;;;27.92;11.77;;;0.70;99.90;;;;;;5012391;28;20084;-81
2021/12/09 07:17:15;;;;;;;37.40;11.00;;;1.50;99.90;;;;;;5011883;28;20082;-81
2021/12/09 07:19:41;;;;;;;38.08;11.57;;;0.70;99.90;;;;;;5012502;28;20054;-81
2021/12/09 07:22:07;;;;;;;25.63;11.18;;;0.70;99.90;;;;;;5012259;28;20417;-81
2021/12/09 07:24:33;;;;;;;29.23;11.45;;;0.70;99.90;;;;;;5007426;28;20053;-81
2021/12/09 07:26:59;;;;;;;37.47;10.95;;;1.00;99.90;;;;;;5013455;28;20042;-81
2021/12/09 07:29:25;;;;;;;27.63;11.35;;;0.80;99.90;;;;;;5012179;28;20103;-80
2021/12/09 07:31:51;;;;;;;27.33;11.43;;;0.60;99.90;;;;;;5011654;28;20054;-80
2021/12/09 07:34:17;;;;;;;26.40;11.00;;;0.60;99.90;;;;;;4993635;28;20600;-80
2021/12/09 07:36:43;;;;;;;29.75;11.77;;;0.80;99.90;;;;;;5011089;28;20045;-80
2021/12/09 07:39:10;;;;;;;33.67;11.30;;;0.80;99.90;;;;;;5012164;28;20046;-80
2021/12/09 07:41:36;;;;;;;28.10;10.98;;;0.60;99.90;;;;;;4998001;28;20038;-80
2021/12/09 07:44:05;;;;;;;29.05;11.82;;;0.60;99.90;;;;;;5031233;28;20061;-80
2021/12/09 07:46:33;;;;;;;34.15;12.05;;;0.60;99.90;;;;;;5032048;28;20049;-80
2021/12/09 07:48:59;;;;;;;35.35;11.57;;;0.60;99.90;;;;;;5032035;28;20508;-80
2021/12/09 07:51:25;;;;;;;28.42;11.07;;;0.50;99.90;;;;;;5014511;28;20136;-80
2021/12/09 07:53:52;;;;;;;41.30;12.35;;;0.80;99.90;;;;;;5028374;28;20120;-80
2021/12/09 07:56:18;;;;;;;29.27;10.75;;;1.10;99.90;;;;;;4993484;28;20054;-80
2021/12/09 07:58:44;;;;;;;33.40;11.55;;;0.50;99.90;;;;;;4992749;28;20109;-80
2021/12/09 08:01:11;;;;;;;30.95;11.18;;;0.50;99.90;;;;;;4992498;28;20054;-81
2021/12/09 08:03:37;;;;;;;35.95;11.82;;;0.50;99.90;;;;;;4992550;28;20406;-81
2021/12/09 08:06:03;;;;;;;26.10;11.10;;;0.90;99.90;;;;;;5003006;28;20397;-80
2021/12/09 08:08:29;;;;;;;32.45;11.80;;;0.50;99.90;;;;;;4999556;28;20057;-80
2021/12/09 08:10:55;;;;;;;30.13;11.25;;;0.70;99.90;;;;;;4997102;28;20398;-80
2021/12/09 08:13:23;;;;;;;26.30;11.45;;;0.50;99.90;;;;;;4997182;28;20082;-80
2021/12/09 08:15:53;;;;;;;31.80;11.77;;;0.50;99.90;;;;;;4997721;28;20058;-80
2021/12/09 08:20:46;;;;;;;24.85;11.07;;;0.50;99.90;;;;;;4996094;28;20461;-80
2021/12/09 08:23:12;;;;;;;24.23;10.32;;;0.60;99.90;;;;;;4996948;28;20104;-80
2021/12/09 08:25:37;;;;;;;29.42;11.20;;;0.50;99.90;;;;;;4996932;28;20039;-80
2021/12/09 08:28:04;;;;;;;28.48;11.15;;;0.50;99.90;;;;;;4995059;28;20112;-80
2021/12/09 08:30:30;;;;;;;29.23;11.40;;;0.60;99.90;;;;;;4995666;28;20046;-80
2021/12/09 08:32:56;;;;;;;31.58;11.05;;;0.60;99.90;;;;;;4994597;28;20494;-80
2021/12/09 08:35:22;;;;;;;32.05;11.77;;;0.60;99.90;;;;;;4996783;28;20049;-80
2021/12/09 08:37:49;;;;;;;33.95;12.63;;;1.10;99.90;;;;;;4996817;28;20459;-80
2021/12/09 08:40:17;;;;;;;34.65;10.48;;;0.60;99.90;;;;;;4995189;28;20105;-80
2021/12/09 08:42:44;;;;;;;29.60;11.43;;;0.70;99.90;;;;;;4979575;28;20052;-80
2021/12/09 08:45:11;;;;;;;21.63;10.75;;;0.70;99.90;;;;;;4978875;28;20581;-80
2021/12/09 08:47:39;;;;;;;36.85;11.93;;;1.70;99.90;;;;;;4978293;28;20501;-80
2021/12/09 08:50:07;;;;;;;27.45;10.02;;;0.80;99.90;;;;;;4995275;28;20133;-80
2021/12/09 08:52:33;;;;;;;25.77;10.25;;;0.80;99.90;;;;;;4979026;28;20125;-80
2021/12/09 08:54:59;;;;;;;26.65;10.55;;;0.80;99.90;;;;;;5004951;28;20045;-80
2021/12/09 08:57:26;;;;;;;25.95;11.10;;;0.80;99.90;;;;;;5014618;28;20042;-80
2021/12/09 08:59:52;;;;;;;24.60;10.60;;;1.00;99.90;;;;;;4998453;28;20108;-80
2021/12/09 09:02:18;;;;;;;24.52;10.70;;;0.90;99.90;;;;;;5013702;28;20042;-80
2021/12/09 09:04:44;;;;;;;24.63;10.82;;;1.00;99.90;;;;;;5014559;28;20085;-80
2021/12/09 09:07:10;;;;;;;26.55;10.20;;;1.00;99.90;;;;;;4995322;28;20054;-80
2021/12/09 09:09:38;;;;;;;26.60;11.38;;;1.10;99.90;;;;;;4994542;28;20121;-80
2021/12/09 09:12:10;;;;;;;32.20;11.68;;;1.80;99.90;;;;;;4995176;28;20057;-80
2021/12/09 09:14:36;;;;;;;27.67;10.90;;;1.10;99.90;;;;;;4994994;28;20046;-80
2021/12/09 09:17:03;;;;;;;19.73;9.90;;;1.10;99.90;;;;;;4993714;28;20046;-80
2021/12/09 09:19:28;;;;;;;25.73;10.40;;;1.20;99.90;;;;;;5008320;28;20053;-80
2021/12/09 09:21:55;;;;;;;27.25;10.48;;;1.20;99.90;;;;;;5014166;28;20504;-80
2021/12/09 09:24:20;;;;;;;22.60;9.80;;;1.30;99.90;;;;;;5013500;28;20054;-81
2021/12/09 09:26:46;;;;;;;27.75;9.75;;;1.60;99.90;;;;;;5014233;28;20072;-80
2021/12/09 09:29:12;;;;;;;29.10;9.85;;;1.40;99.90;;;;;;5013208;28;20116;-80
2021/12/09 09:31:40;;;;;;;27.40;9.90;;;1.60;99.90;;;;;;5014285;28;20077;-80
2021/12/09 09:34:08;;;;;;;27.23;10.10;;;1.80;99.90;;;;;;5012407;28;20401;-80
2021/12/09 09:36:39;;;;;;;18.48;8.98;;;1.70;99.90;;;;;;5013361;28;20042;-80
2021/12/09 09:39:17;;;;;;;29.27;10.50;;;1.80;99.90;;;;;;5014916;28;20088;-80
2021/12/09 09:41:59;;;;;;;25.83;9.57;;;1.70;99.90;;;;;;5019819;28;20124;-80
2021/12/09 09:44:44;;;;;;;23.50;8.85;;;1.70;99.90;;;;;;5011917;28;20136;-79
2021/12/09 09:47:13;;;;;;;24.05;9.30;;;1.70;99.90;;;;;;5013834;28;20508;-80
2021/12/09 09:49:40;;;;;;;20.42;9.25;;;1.80;99.90;;;;;;5013816;28;20128;-80
2021/12/09 09:52:08;;;;;;;26.52;9.18;;;1.80;99.90;;;;;;5014047;28;20569;-80
2021/12/09 09:54:35;;;;;;;26.23;8.73;;;1.90;99.90;;;;;;5011877;28;20050;-80
2021/12/09 09:57:02;;;;;;;19.98;8.52;;;1.90;99.90;;;;;;5014697;28;20140;-79
2021/12/09 09:59:27;;;;;;;19.30;9.27;;;1.90;99.90;;;;;;5014102;28;20104;-79
2021/12/09 10:01:55;;;;;;;22.95;8.68;;;2.00;99.90;;;;;;5014728;28;20046;-79
2021/12/09 10:07:10;;;;;;;27.13;9.57;;;2.10;99.90;;;;;;4993843;28;20050;-79
2021/12/09 10:09:36;;;;;;;27.95;9.20;;;2.20;99.90;;;;;;4993872;28;20502;-78
2021/12/09 10:12:02;;;;;;;21.38;9.40;;;2.20;99.90;;;;;;4992896;28;20050;-79
2021/12/09 10:14:34;;;;;;;20.48;8.63;;;2.20;99.90;;;;;;5008457;28;20078;-79
2021/12/09 10:17:12;;;;;;;22.23;8.30;;;2.30;99.90;;;;;;5012996;28;20046;-79
2021/12/09 10:19:46;;;;;;;31.55;9.27;;;2.40;99.90;;;;;;5008344;28;20046;-78
2021/12/09 10:22:17;;;;;;;27.40;10.23;;;2.40;99.90;;;;;;4993664;28;20089;-79
2021/12/09 10:24:49;;;;;;;14.85;7.20;;;2.50;99.90;;;;;;5002418;28;20058;-78
2021/12/09 10:27:26;;;;;;;25.67;9.88;;;2.50;99.90;;;;;;5012282;28;20046;-78
2021/12/09 10:29:57;;;;;;;29.77;10.32;;;2.60;99.90;;;;;;5012312;28;20058;-78
2021/12/09 10:32:29;;;;;;;18.75;9.15;;;2.60;99.90;;;;;;5011185;28;20048;-77
2021/12/09 10:35:01;;;;;;;25.50;9.85;;;2.60;99.90;;;;;;4993289;28;20050;-78
2021/12/09 10:37:32;;;;;;;22.77;9.77;;;2.70;99.90;;;;;;4993108;28;20050;-78
2021/12/09 10:40:23;;;;;;;19.40;9.13;;;2.80;99.90;;;;;;5002916;28;20050;-77
2021/12/09 10:42:57;;;;;;;32.00;10.63;;;2.70;99.90;;;;;;5001464;28;20057;-78
2021/12/09 10:45:33;;;;;;;17.20;9.52;;;2.70;99.90;;;;;;5012232;28;20061;-78
2021/12/09 10:51:12;;;;;;;25.88;10.13;;;2.70;99.90;;;;;;5012759;28;20119;-78
2021/12/09 10:53:47;;;;;;;28.58;10.05;;;2.80;99.90;;;;;;4995096;28;20052;-78
2021/12/09 10:56:23;;;;;;;30.27;10.25;;;2.80;99.90;;;;;;4993602;28;20047;-77
2021/12/09 10:58:49;;;;;;;28.25;10.32;;;2.80;99.90;;;;;;4993874;28;20085;-77
2021/12/09 11:01:20;;;;;;;26.02;10.43;;;2.80;99.90;;;;;;4992258;28;20074;-78
2021/12/09 11:03:53;;;;;;;32.42;11.45;;;2.80;99.90;;;;;;4996844;28;20046;-78
2021/12/09 11:06:22;;;;;;;22.42;9.18;;;2.80;99.90;;;;;;5012262;28;20047;-76
2021/12/09 11:08:53;;;;;;;30.45;11.02;;;2.80;99.90;;;;;;5002648;28;20513;-78
2021/12/09 11:11:31;;;;;;;24.48;10.55;;;2.80;99.90;;;;;;4992669;28;20053;-78
2021/12/09 11:14:03;;;;;;;31.20;10.88;;;2.90;99.90;;;;;;4997906;28;20555;-78
2021/12/09 11:16:32;;;;;;;33.42;11.38;;;2.90;99.90;;;;;;4995112;28;20457;-78
2021/12/09 11:19:35;;;;;;;26.73;10.35;;;2.90;99.90;;;;;;5012147;28;20470;-79
2021/12/09 11:22:07;;;;;;;27.08;11.52;;;2.90;99.90;;;;;;5011215;28;20061;-78
2021/12/09 11:24:38;;;;;;;36.85;12.13;;;2.90;99.90;;;;;;5008840;28;20068;-77
2021/12/09 11:27:07;;;;;;;32.08;11.15;;;3.00;99.90;;;;;;5010548;28;20038;-76
2021/12/09 11:29:46;;;;;;;32.88;11.85;;;3.00;99.90;;;;;;5011076;28;20192;-76
2021/12/09 11:35:02;;;;;;;36.53;14.90;;;3.00;99.90;;;;;;5001823;28;20383;-77
2021/12/09 11:40:27;;;;;;;25.30;11.60;;;3.00;99.90;;;;;;4992744;28;20205;-76
2021/12/09 11:42:57;;;;;;;30.25;12.35;;;3.00;99.90;;;;;;4998593;28;20072;-77
2021/12/09 11:45:27;;;;;;;28.05;10.75;;;3.00;99.90;;;;;;5031507;28;20058;-77
2021/12/09 11:47:55;;;;;;;20.15;10.35;;;3.00;99.90;;;;;;4986465;28;20054;-77
2021/12/09 11:50:26;;;;;;;29.73;11.77;;;3.00;99.90;;;;;;4995663;28;20061;-78
2021/12/09 11:52:54;;;;;;;30.95;11.48;;;3.10;99.90;;;;;;5013337;28;20519;-78
2021/12/09 11:55:26;;;;;;;27.27;11.20;;;3.10;99.90;;;;;;4998642;28;20181;-79
2021/12/09 11:57:57;;;;;;;28.30;11.75;;;3.40;99.90;;;;;;4997261;28;20506;-78
2021/12/09 12:12:32;;;;;;;30.88;11.45;;;3.20;99.90;;;;;;4995046;28;20058;-78
2021/12/09 12:15:39;;;;;;;25.63;10.23;;;3.20;99.90;;;;;;5004628;28;20503;-78
2021/12/09 12:21:04;;;;;;;33.50;11.93;;;3.30;99.90;;;;;;5015377;28;20120;-78
2021/12/09 12:24:22;;;;;;;32.58;12.73;;;3.40;99.90;;;;;;5015201;28;20054;-78
2021/12/09 12:32:31;;;;;;;29.73;13.32;;;3.30;99.90;;;;;;4994923;28;20061;-78
2021/12/09 12:41:14;;;;;;;33.05;13.05;;;3.40;99.90;;;;;;4957074;28;20183;-78
2021/12/09 12:43:57;;;;;;;35.13;13.90;;;3.40;99.90;;;;;;4981463;28;20529;-78
2021/12/09 12:46:51;;;;;;;37.47;13.70;;;3.40;99.90;;;;;;4994468;28;20058;-78
2021/12/09 12:52:00;;;;;;;31.45;14.13;;;3.50;99.90;;;;;;4994505;28;20058;-78
2021/12/09 12:57:15;;;;;;;33.67;14.60;;;3.50;99.90;;;;;;4996225;28;20104;-78
2021/12/09 12:59:45;;;;;;;29.77;13.60;;;3.50;99.90;;;;;;4996228;28;20117;-78
2021/12/09 13:16:26;;;;;;;35.25;14.05;;;3.70;99.90;;;;;;5008579;28;20053;-78
2021/12/09 13:22:01;;;;;;;32.83;13.50;;;3.70;99.90;;;;;;5008373;28;20051;-78
2021/12/09 13:24:49;;;;;;;30.08;14.00;;;3.70;99.90;;;;;;4995621;28;20132;-78
2021/12/09 13:27:38;;;;;;;30.50;14.55;;;3.70;99.90;;;;;;4995806;28;20140;-78
2021/12/09 13:30:38;;;;;;;30.10;14.57;;;3.70;99.90;;;;;;4993848;28;20051;-78
2021/12/09 13:33:39;;;;;;;32.50;14.90;;;3.70;99.90;;;;;;4995974;28;20062;-78
2021/12/09 13:36:26;;;;;;;36.13;15.80;;;3.70;99.90;;;;;;5013164;28;20076;-78
2021/12/09 13:50:14;;;;;;;29.73;16.02;;;3.70;99.90;;;;;;5012796;28;20058;-77
2021/12/09 13:55:20;;;;;;;34.42;13.63;;;3.80;99.90;;;;;;5002459;28;20065;-78
2021/12/09 13:57:49;;;;;;;33.50;13.98;;;3.80;99.90;;;;;;4993285;28;20470;-78
2021/12/09 14:00:31;;;;;;;35.50;14.63;;;3.80;99.90;;;;;;4993791;28;20050;-78
2021/12/09 14:03:06;;;;;;;37.35;14.60;;;3.80;99.90;;;;;;4977225;28;20058;-78
2021/12/09 14:06:04;;;;;;;34.80;13.48;;;3.80;99.90;;;;;;4989681;28;20042;-78
2021/12/09 14:08:35;;;;;;;30.63;13.68;;;3.80;99.90;;;;;;5012417;28;20498;-78